Flight Track Log - Related Links

Times and Time Zones

All times are in EST time to prevent confusion due to time zone crossing. See the N8854L flight status page for this flight to view local times or setup timezone preferences in your user account.


Time Position Orientation Groundspeed Altitude Reporting Facility
EST Latitude Longitude Course Direction KTS MPH feet Rate Location/Type
Sun 02:16:41 AM 44.4883 -108.9522 126° Southeast 77 89 7,100  Level Salt Lake Center
Sun 02:17:41 AM 44.4781 -108.9261 119° Southeast 78 90 7,600 496 Climbing Salt Lake Center
Sun 02:18:42 AM 44.4678 -108.9019 121° Southeast 76 87 8,100 397 Climbing Salt Lake Center
Sun 02:19:42 AM 44.4572 -108.8761 120° Southeast 75 86 8,400 350 Climbing Salt Lake Center
Sun 02:20:42 AM 44.4461 -108.8478 119° Southeast 78 90 8,800 397 Climbing Salt Lake Center
Sun 02:21:43 AM 44.4344 -108.8181 119° Southeast 82 94 9,200 347 Climbing Salt Lake Center
Sun 02:22:00 AM 44.5059 -108.7460 126° Southeast  Level Estimated
Sun 02:22:43 AM 44.4233 -108.7883 118° Southeast 85 98 9,500  Level Salt Lake Center
Sun 02:23:43 AM 44.4133 -108.7583 115° Southeast 85 98 9,900 400 Climbing Salt Lake Center
Sun 02:24:43 AM 44.4025 -108.7292 117° Southeast 85 98 10,300 298 Climbing Salt Lake Center
Sun 02:25:44 AM 44.3892 -108.6989 122° Southeast 87 100 10,500 99 Climbing Salt Lake Center
Sun 02:26:44 AM 44.3700 -108.6564 122° Southeast 96 110 10,500 -50 Level Salt Lake Center
Sun 02:27:44 AM 44.3531 -108.6164 121° Southeast 107 123 10,400 50 Descending Salt Lake Center
Sun 02:28:44 AM 44.3342 -108.5783 125° Southeast 114 131 10,600 198 Climbing Salt Lake Center
Sun 02:29:45 AM 44.3164 -108.5431 125° Southeast 115 132 10,800 198 Climbing Salt Lake Center
Sun 02:30:45 AM 44.2986 -108.5139 130° Southeast 109 125 11,000 250 Climbing Salt Lake Center
Sun 02:31:45 AM 44.2825 -108.4842 127° Southeast 102 117 11,300 198 Climbing Salt Lake Center
Sun 02:32:46 AM 44.2669 -108.4539 126° Southeast 99 114 11,400 99 Climbing Salt Lake Center
Sun 02:33:46 AM 44.2503 -108.4203 125° Southeast 101 116 11,500 50 Climbing Salt Lake Center
Sun 02:34:46 AM 44.2411 -108.3786 107° East 109 125 11,500  Level Salt Lake Center
Sun 02:35:46 AM 44.2297 -108.3347 110° East 115 132 11,500  Level Salt Lake Center
Sun 02:36:47 AM 44.2186 -108.2928 110° East 117 135 11,500  Level Salt Lake Center
Sun 02:37:47 AM 44.2081 -108.2508 109° East 116 133 11,500  Level Salt Lake Center
Sun 02:38:47 AM 44.1981 -108.2092 108° East 115 132 11,500  Level Salt Lake Center
Sun 02:39:48 AM 44.1906 -108.1658 104° East 115 132 11,500  Level Salt Lake Center
Sun 02:40:48 AM 44.1831 -108.1222 103° East 115 132 11,500  Level Salt Lake Center
Sun 02:41:48 AM 44.1744 -108.0786 105° East 116 133 11,500 33 Level Salt Lake Center
Sun 02:43:00 AM 44.1377 -108.0575 158° South  Level FlightAware Approximate
Sun 02:43:49 AM 44.1533 -107.9931 158° South 115 132 11,600  Level Salt Lake Center
Sun 02:44:49 AM 44.1489 -107.9528 99° East 113 130 11,700 50 Climbing Salt Lake Center
Sun 02:45:49 AM 44.1483 -107.9069 91° East 115 132 11,700  Level Salt Lake Center
Sun 02:46:50 AM 44.1450 -107.8611 96° East 117 135 11,700  Level Salt Lake Center
Sun 02:47:50 AM 44.1400 -107.8167 99° East 118 136 11,700  Level Salt Lake Center
Sun 02:48:50 AM 44.1342 -107.7717 100° East 118 136 11,700  Level Salt Lake Center
Sun 02:49:50 AM 44.1317 -107.7267 94° East 117 135 11,700  Level Salt Lake Center
Sun 02:50:51 AM 44.1275 -107.6811 97° East 118 136 11,700  Level Salt Lake Center
Sun 02:51:51 AM 44.1206 -107.6369 102° East 118 136 11,700  Level Salt Lake Center
Sun 02:52:51 AM 44.1108 -107.5925 107° East 119 137 11,700  Level Salt Lake Center
Sun 02:53:52 AM 44.1044 -107.5486 101° East 118 136 11,700  Level Salt Lake Center
Sun 02:54:52 AM 44.1008 -107.5042 96° East 117 135 11,700  Level Salt Lake Center
Sun 02:55:52 AM 44.0978 -107.4575 95° East 118 136 11,700  Level Salt Lake Center
Sun 02:56:53 AM 44.0919 -107.4119 100° East 119 137 11,700 -50 Level Salt Lake Center
Sun 02:57:53 AM 44.1008 -107.3672 75° East 120 138 11,600 -50 Descending Salt Lake Center
Sun 02:58:53 AM 44.1114 -107.3125 75° East 122 140 11,600  Level Salt Lake Center
Sun 02:59:54 AM 44.1178 -107.2658 79° East 122 140 11,600 49 Level Salt Lake Center
Sun 03:00:55 AM 44.1233 -107.2206 80° East 122 140 11,700 98 Climbing Salt Lake Center

Login

Don't have an account? Register now (free) for customized features, flight alerts, and more!